sensor_id;sensor_type;location;lat;lon;timestamp;pressure;altitude;pressure_sealevel;temperature;humidity
14293;BME280;62290;59.420;17.842;2023-01-10T00:01:43;99912.72;;;26.04;22.16
14293;BME280;62290;59.420;17.842;2023-01-10T00:04:11;99910.03;;;26.04;22.20
14293;BME280;62290;59.420;17.842;2023-01-10T00:06:39;99906.28;;;26.05;22.26
14293;BME280;62290;59.420;17.842;2023-01-10T00:09:08;99910.03;;;26.04;22.02
14293;BME280;62290;59.420;17.842;2023-01-10T00:11:36;99905.63;;;26.03;22.03
14293;BME280;62290;59.420;17.842;2023-01-10T00:14:25;99901.22;;;26.02;21.57
14293;BME280;62290;59.420;17.842;2023-01-10T00:16:54;99901.06;;;25.96;21.58
14293;BME280;62290;59.420;17.842;2023-01-10T00:19:22;99890.28;;;25.88;21.63
14293;BME280;62290;59.420;17.842;2023-01-10T00:21:50;99889.44;;;25.87;21.83
14293;BME280;62290;59.420;17.842;2023-01-10T00:24:18;99886.06;;;25.85;21.80
14293;BME280;62290;59.420;17.842;2023-01-10T00:26:48;99888.56;;;25.87;21.43
14293;BME280;62290;59.420;17.842;2023-01-10T00:29:18;99896.00;;;25.85;21.65
14293;BME280;62290;59.420;17.842;2023-01-10T00:31:47;99888.41;;;25.80;21.41
14293;BME280;62290;59.420;17.842;2023-01-10T00:34:16;99889.41;;;25.79;21.52
14293;BME280;62290;59.420;17.842;2023-01-10T00:36:44;99882.50;;;25.76;21.58
14293;BME280;62290;59.420;17.842;2023-01-10T00:39:14;99885.38;;;25.75;21.44
14293;BME280;62290;59.420;17.842;2023-01-10T00:41:43;99885.19;;;25.76;21.37
14293;BME280;62290;59.420;17.842;2023-01-10T00:44:29;99892.81;;;25.73;21.66
14293;BME280;62290;59.420;17.842;2023-01-10T00:46:58;99887.56;;;25.71;21.40
14293;BME280;62290;59.420;17.842;2023-01-10T00:49:26;99891.28;;;25.70;21.30
14293;BME280;62290;59.420;17.842;2023-01-10T00:51:54;99898.00;;;25.66;21.48
14293;BME280;62290;59.420;17.842;2023-01-10T00:54:24;99892.78;;;25.57;21.45
14293;BME280;62290;59.420;17.842;2023-01-10T00:56:52;99888.88;;;25.51;21.55
14293;BME280;62290;59.420;17.842;2023-01-10T00:59:20;99897.50;;;25.55;21.32
14293;BME280;62290;59.420;17.842;2023-01-10T01:01:48;99900.56;;;25.60;21.75
14293;BME280;62290;59.420;17.842;2023-01-10T01:04:18;99904.59;;;25.64;21.59
14293;BME280;62290;59.420;17.842;2023-01-10T01:06:46;99910.84;;;25.64;21.55
14293;BME280;62290;59.420;17.842;2023-01-10T01:09:16;99913.19;;;25.59;21.65
14293;BME280;62290;59.420;17.842;2023-01-10T01:11:44;99916.88;;;25.58;21.27
14293;BME280;62290;59.420;17.842;2023-01-10T01:14:12;99915.53;;;25.54;21.57
14293;BME280;62290;59.420;17.842;2023-01-10T01:16:40;99915.19;;;25.49;21.59
14293;BME280;62290;59.420;17.842;2023-01-10T01:19:08;99909.41;;;25.44;21.77
14293;BME280;62290;59.420;17.842;2023-01-10T01:21:38;99916.13;;;25.40;22.10
14293;BME280;62290;59.420;17.842;2023-01-10T01:24:07;99908.19;;;25.31;21.92
14293;BME280;62290;59.420;17.842;2023-01-10T01:26:35;99918.81;;;25.32;22.30
14293;BME280;62290;59.420;17.842;2023-01-10T01:29:03;99920.50;;;25.33;22.23
14293;BME280;62290;59.420;17.842;2023-01-10T01:31:31;99915.63;;;25.29;22.05
14293;BME280;62290;59.420;17.842;2023-01-10T01:33:59;99915.94;;;25.26;21.80
14293;BME280;62290;59.420;17.842;2023-01-10T01:36:27;99913.75;;;25.21;22.04
14293;BME280;62290;59.420;17.842;2023-01-10T01:38:57;99920.97;;;25.21;21.81
14293;BME280;62290;59.420;17.842;2023-01-10T01:41:25;99914.19;;;25.16;22.46
14293;BME280;62290;59.420;17.842;2023-01-10T01:44:14;99892.91;;;24.97;22.07
14293;BME280;62290;59.420;17.842;2023-01-10T01:46:45;99919.91;;;25.13;22.14
14293;BME280;62290;59.420;17.842;2023-01-10T01:49:19;99921.78;;;25.13;21.97
14293;BME280;62290;59.420;17.842;2023-01-10T01:51:54;99911.31;;;25.10;22.00
14293;BME280;62290;59.420;17.842;2023-01-10T01:54:27;99915.19;;;25.07;22.44
14293;BME280;62290;59.420;17.842;2023-01-10T01:57:00;99918.03;;;25.06;22.08
14293;BME280;62290;59.420;17.842;2023-01-10T01:59:34;99911.97;;;25.04;22.50
14293;BME280;62290;59.420;17.842;2023-01-10T02:02:06;99915.50;;;25.04;22.10
14293;BME280;62290;59.420;17.842;2023-01-10T02:04:39;99919.91;;;25.05;21.99
14293;BME280;62290;59.420;17.842;2023-01-10T02:07:11;99913.50;;;25.06;21.95
14293;BME280;62290;59.420;17.842;2023-01-10T02:09:44;99918.56;;;25.09;22.02
14293;BME280;62290;59.420;17.842;2023-01-10T02:12:14;99918.03;;;25.06;21.94
14293;BME280;62290;59.420;17.842;2023-01-10T02:14:44;99926.84;;;25.08;22.09
14293;BME280;62290;59.420;17.842;2023-01-10T02:17:15;99922.97;;;25.10;21.89
14293;BME280;62290;59.420;17.842;2023-01-10T02:19:49;99920.75;;;25.14;21.99
14293;BME280;62290;59.420;17.842;2023-01-10T02:22:40;99916.72;;;25.10;22.19
14293;BME280;62290;59.420;17.842;2023-01-10T02:29:00;99919.16;;;24.95;22.37
14293;BME280;62290;59.420;17.842;2023-01-10T02:32:00;99918.66;;;24.92;22.01
14293;BME280;62290;59.420;17.842;2023-01-10T02:34:41;99920.16;;;24.86;22.00
14293;BME280;62290;59.420;17.842;2023-01-10T02:37:18;99920.28;;;24.85;22.20
14293;BME280;62290;59.420;17.842;2023-01-10T02:39:56;99910.38;;;24.85;22.52
14293;BME280;62290;59.420;17.842;2023-01-10T02:42:29;99917.44;;;24.86;22.09
14293;BME280;62290;59.420;17.842;2023-01-10T02:45:07;99916.78;;;24.84;22.35
14293;BME280;62290;59.420;17.842;2023-01-10T02:47:38;99919.31;;;24.86;22.52
14293;BME280;62290;59.420;17.842;2023-01-10T02:50:27;99915.94;;;24.84;22.33
14293;BME280;62290;59.420;17.842;2023-01-10T02:52:58;99917.09;;;24.81;22.15
14293;BME280;62290;59.420;17.842;2023-01-10T02:55:40;99910.84;;;24.81;22.56
14293;BME280;62290;59.420;17.842;2023-01-10T02:58:22;99912.16;;;24.77;22.43
14293;BME280;62290;59.420;17.842;2023-01-10T03:01:00;99906.91;;;24.75;22.56
14293;BME280;62290;59.420;17.842;2023-01-10T03:03:39;99912.16;;;24.77;22.51
14293;BME280;62290;59.420;17.842;2023-01-10T03:06:17;99911.31;;;24.76;22.29
14293;BME280;62290;59.420;17.842;2023-01-10T03:08:54;99906.91;;;24.75;22.47
14293;BME280;62290;59.420;17.842;2023-01-10T03:11:27;99912.03;;;24.78;22.11
14293;BME280;62290;59.420;17.842;2023-01-10T03:14:14;99902.94;;;24.79;22.26
14293;BME280;62290;59.420;17.842;2023-01-10T03:16:46;99897.56;;;24.79;22.19
14293;BME280;62290;59.420;17.842;2023-01-10T03:19:20;99896.22;;;24.83;22.03
14293;BME280;62290;59.420;17.842;2023-01-10T03:21:52;99895.53;;;24.81;22.20
14293;BME280;62290;59.420;17.842;2023-01-10T03:24:26;99877.44;;;24.74;22.31
14293;BME280;62290;59.420;17.842;2023-01-10T03:26:57;99897.06;;;24.84;22.29
14293;BME280;62290;59.420;17.842;2023-01-10T03:29:28;99889.47;;;24.87;22.26
14293;BME280;62290;59.420;17.842;2023-01-10T03:32:01;99895.91;;;24.86;22.35
14293;BME280;62290;59.420;17.842;2023-01-10T03:34:33;99903.66;;;24.89;22.32
14293;BME280;62290;59.420;17.842;2023-01-10T03:37:06;99899.94;;;24.90;22.44
14293;BME280;62290;59.420;17.842;2023-01-10T03:39:42;99900.78;;;24.91;22.17
14293;BME280;62290;59.420;17.842;2023-01-10T03:42:15;99843.50;;;24.55;22.17
14293;BME280;62290;59.420;17.842;2023-01-10T03:44:54;99898.94;;;24.91;22.13
14293;BME280;62290;59.420;17.842;2023-01-10T03:47:27;99898.09;;;24.91;22.28
14293;BME280;62290;59.420;17.842;2023-01-10T03:50:02;99899.81;;;24.92;21.98
14293;BME280;62290;59.420;17.842;2023-01-10T03:52:32;99889.47;;;24.87;22.33
14293;BME280;62290;59.420;17.842;2023-01-10T03:55:01;99912.25;;;24.93;22.21
14293;BME280;62290;59.420;17.842;2023-01-10T03:57:31;99918.50;;;24.93;22.19
14293;BME280;62290;59.420;17.842;2023-01-10T03:59:59;99916.97;;;24.91;22.50
14293;BME280;62290;59.420;17.842;2023-01-10T04:02:30;99918.97;;;24.89;22.52
14293;BME280;62290;59.420;17.842;2023-01-10T04:05:00;99918.31;;;24.87;22.23
14293;BME280;62290;59.420;17.842;2023-01-10T04:07:28;99924.16;;;24.82;22.25
14293;BME280;62290;59.420;17.842;2023-01-10T04:09:56;99876.16;;;24.52;22.43
14293;BME280;62290;59.420;17.842;2023-01-10T04:12:24;99923.75;;;24.77;22.37
14293;BME280;62290;59.420;17.842;2023-01-10T04:14:53;99922.94;;;24.77;22.26
14293;BME280;62290;59.420;17.842;2023-01-10T04:17:21;99922.81;;;24.78;22.57
14293;BME280;62290;59.420;17.842;2023-01-10T04:19:49;99921.06;;;24.77;22.60
14293;BME280;62290;59.420;17.842;2023-01-10T04:22:18;99922.09;;;24.76;22.64
14293;BME280;62290;59.420;17.842;2023-01-10T04:24:46;99921.38;;;24.74;22.32
14293;BME280;62290;59.420;17.842;2023-01-10T04:27:16;99919.72;;;24.73;22.48
14293;BME280;62290;59.420;17.842;2023-01-10T04:29:45;99926.09;;;24.72;22.58
14293;BME280;62290;59.420;17.842;2023-01-10T04:32:13;99925.94;;;24.74;22.66
14293;BME280;62290;59.420;17.842;2023-01-10T04:34:41;99916.34;;;24.71;22.41
14293;BME280;62290;59.420;17.842;2023-01-10T04:37:09;99912.94;;;24.69;22.51
14293;BME280;62290;59.420;17.842;2023-01-10T04:39:38;99910.25;;;24.69;22.77
14293;BME280;62290;59.420;17.842;2023-01-10T04:42:06;99913.78;;;24.70;22.87
14293;BME280;62290;59.420;17.842;2023-01-10T04:44:34;99911.94;;;24.70;22.73
14293;BME280;62290;59.420;17.842;2023-01-10T04:47:02;99911.09;;;24.70;22.88
14293;BME280;62290;59.420;17.842;2023-01-10T04:49:30;99910.09;;;24.71;22.65
14293;BME280;62290;59.420;17.842;2023-01-10T04:51:58;99908.25;;;24.71;22.80
14293;BME280;62290;59.420;17.842;2023-01-10T04:54:26;99910.94;;;24.71;22.44
14293;BME280;62290;59.420;17.842;2023-01-10T04:56:55;99910.25;;;24.69;22.78
14293;BME280;62290;59.420;17.842;2023-01-10T04:59:23;99918.31;;;24.69;22.93
14293;BME280;62290;59.420;17.842;2023-01-10T05:01:51;99913.78;;;24.70;22.74
14293;BME280;62290;59.420;17.842;2023-01-10T05:04:19;99916.47;;;24.70;22.60
14293;BME280;62290;59.420;17.842;2023-01-10T05:06:47;99916.34;;;24.71;22.72
14293;BME280;62290;59.420;17.842;2023-01-10T05:09:15;99915.31;;;24.72;22.51
14293;BME280;62290;59.420;17.842;2023-01-10T05:11:43;99917.16;;;24.72;22.68
14293;BME280;62290;59.420;17.842;2023-01-10T05:14:13;99915.84;;;24.76;22.76
14293;BME280;62290;59.420;17.842;2023-01-10T05:16:41;99903.22;;;24.76;22.67
14293;BME280;62290;59.420;17.842;2023-01-10T05:19:09;99906.38;;;24.72;22.79
14293;BME280;62290;59.420;17.842;2023-01-10T05:21:37;99910.94;;;24.71;22.85
14293;BME280;62290;59.420;17.842;2023-01-10T05:24:06;99916.66;;;24.68;22.77
14293;BME280;62290;59.420;17.842;2023-01-10T05:26:34;99918.66;;;24.66;23.01
14293;BME280;62290;59.420;17.842;2023-01-10T05:29:02;99922.03;;;24.68;22.81
14293;BME280;62290;59.420;17.842;2023-01-10T05:31:31;99930.50;;;24.73;22.85
14293;BME280;62290;59.420;17.842;2023-01-10T05:34:00;99926.63;;;24.76;22.82
14293;BME280;62290;59.420;17.842;2023-01-10T05:36:28;99932.31;;;24.73;23.17
14293;BME280;62290;59.420;17.842;2023-01-10T05:38:56;99938.72;;;24.72;22.92
14293;BME280;62290;59.420;17.842;2023-01-10T05:41:24;99937.91;;;24.71;23.11
14293;BME280;62290;59.420;17.842;2023-01-10T05:43:52;99933.66;;;24.69;23.14
14293;BME280;62290;59.420;17.842;2023-01-10T05:46:20;99939.19;;;24.67;23.11
14293;BME280;62290;59.420;17.842;2023-01-10T05:48:50;99944.59;;;24.67;22.91
14293;BME280;62290;59.420;17.842;2023-01-10T05:51:18;99942.22;;;24.64;23.37
14293;BME280;62290;59.420;17.842;2023-01-10T05:53:46;99937.84;;;24.63;23.25
14293;BME280;62290;59.420;17.842;2023-01-10T05:56:16;99945.91;;;24.63;23.26
14293;BME280;62290;59.420;17.842;2023-01-10T05:58:44;99946.06;;;24.62;23.17
14293;BME280;62290;59.420;17.842;2023-01-10T06:01:15;99951.31;;;24.63;23.40
14293;BME280;62290;59.420;17.842;2023-01-10T06:03:43;99951.31;;;24.63;23.03
14293;BME280;62290;59.420;17.842;2023-01-10T06:06:12;99952.00;;;24.65;23.14
14293;BME280;62290;59.420;17.842;2023-01-10T06:08:40;99953.16;;;24.63;23.30
14293;BME280;62290;59.420;17.842;2023-01-10T06:11:09;99955.00;;;24.62;23.23
14293;BME280;62290;59.420;17.842;2023-01-10T06:13:37;99954.84;;;24.64;23.20
14293;BME280;62290;59.420;17.842;2023-01-10T06:16:05;99961.78;;;24.66;23.27
14293;BME280;62290;59.420;17.842;2023-01-10T06:18:34;99955.38;;;24.67;23.51
14293;BME280;62290;59.420;17.842;2023-01-10T06:21:02;99944.94;;;24.72;23.34
14293;BME280;62290;59.420;17.842;2023-01-10T06:23:31;99952.91;;;24.74;23.34
14293;BME280;62290;59.420;17.842;2023-01-10T06:25:59;99945.81;;;24.73;23.21
14293;BME280;62290;59.420;17.842;2023-01-10T06:28:27;99948.00;;;24.77;23.46
14293;BME280;62290;59.420;17.842;2023-01-10T06:30:55;99948.59;;;24.81;23.45
14293;BME280;62290;59.420;17.842;2023-01-10T06:33:23;99948.59;;;24.81;22.97
14293;BME280;62290;59.420;17.842;2023-01-10T06:35:52;99956.50;;;24.82;22.94
14293;BME280;62290;59.420;17.842;2023-01-10T06:38:20;99960.88;;;24.83;23.31
14293;BME280;62290;59.420;17.842;2023-01-10T06:40:49;99951.63;;;24.86;22.93
14293;BME280;62290;59.420;17.842;2023-01-10T06:43:17;99960.25;;;24.89;23.23
14293;BME280;62290;59.420;17.842;2023-01-10T06:45:45;99963.78;;;24.90;22.89
14293;BME280;62290;59.420;17.842;2023-01-10T06:48:13;99968.50;;;24.88;23.09
14293;BME280;62290;59.420;17.842;2023-01-10T06:50:41;99967.63;;;24.87;23.03
14293;BME280;62290;59.420;17.842;2023-01-10T06:53:09;99963.59;;;24.83;23.40
14293;BME280;62290;59.420;17.842;2023-01-10T06:55:37;99967.44;;;24.81;23.31
14293;BME280;62290;59.420;17.842;2023-01-10T06:58:07;99977.22;;;24.82;23.15
14293;BME280;62290;59.420;17.842;2023-01-10T07:00:35;99971.13;;;24.80;23.16
14293;BME280;62290;59.420;17.842;2023-01-10T07:03:03;99971.66;;;24.83;23.12
14293;BME280;62290;59.420;17.842;2023-01-10T07:05:32;99980.59;;;24.84;23.48
14293;BME280;62290;59.420;17.842;2023-01-10T07:08:00;99988.00;;;24.82;23.05
14293;BME280;62290;59.420;17.842;2023-01-10T07:10:28;99995.25;;;24.81;23.27
14293;BME280;62290;59.420;17.842;2023-01-10T07:12:57;99998.06;;;24.80;23.11
14293;BME280;62290;59.420;17.842;2023-01-10T07:15:27;100006.34;;;24.78;23.42
14293;BME280;62290;59.420;17.842;2023-01-10T07:17:55;100002.22;;;24.74;23.31
14293;BME280;62290;59.420;17.842;2023-01-10T07:20:24;100003.38;;;24.72;23.45
14293;BME280;62290;59.420;17.842;2023-01-10T07:22:53;100001.72;;;24.71;23.36
14293;BME280;62290;59.420;17.842;2023-01-10T07:25:21;100007.09;;;24.71;23.50
14293;BME280;62290;59.420;17.842;2023-01-10T07:27:49;100007.22;;;24.69;23.41
14293;BME280;62290;59.420;17.842;2023-01-10T07:30:17;100015.31;;;24.69;23.54
14293;BME280;62290;59.420;17.842;2023-01-10T07:32:53;100009.09;;;24.69;23.69
14293;BME280;62290;59.420;17.842;2023-01-10T07:35:21;100020.03;;;24.67;23.55
14293;BME280;62290;59.420;17.842;2023-01-10T07:37:49;100030.81;;;24.67;23.60
14293;BME280;62290;59.420;17.842;2023-01-10T07:40:17;100030.97;;;24.66;23.60
14293;BME280;62290;59.420;17.842;2023-01-10T07:42:45;100039.75;;;24.68;23.72
14293;BME280;62290;59.420;17.842;2023-01-10T07:45:13;100038.88;;;24.67;23.98
14293;BME280;62290;59.420;17.842;2023-01-10T07:47:41;100046.34;;;24.73;23.90
14293;BME280;62290;59.420;17.842;2023-01-10T07:50:11;100048.56;;;24.78;24.34
14293;BME280;62290;59.420;17.842;2023-01-10T07:52:39;100058.66;;;24.76;24.29
14293;BME280;62290;59.420;17.842;2023-01-10T07:55:08;100059.53;;;24.76;24.45
14293;BME280;62290;59.420;17.842;2023-01-10T07:57:36;100061.50;;;24.74;24.67
14293;BME280;62290;59.420;17.842;2023-01-10T08:00:05;100063.38;;;24.74;24.90
14293;BME280;62290;59.420;17.842;2023-01-10T08:02:33;100068.03;;;24.72;24.89
14293;BME280;62290;59.420;17.842;2023-01-10T08:05:01;100070.59;;;24.73;24.90
14293;BME280;62290;59.420;17.842;2023-01-10T08:07:31;100065.22;;;24.73;25.28
14293;BME280;62290;59.420;17.842;2023-01-10T08:09:59;100069.06;;;24.71;24.83
14293;BME280;62290;59.420;17.842;2023-01-10T08:12:27;100078.81;;;24.72;24.74
14293;BME280;62290;59.420;17.842;2023-01-10T08:14:55;100076.84;;;24.74;24.87
14293;BME280;62290;59.420;17.842;2023-01-10T08:17:24;100076.00;;;24.73;24.93
14293;BME280;62290;59.420;17.842;2023-01-10T08:19:52;100086.59;;;24.75;24.79
14293;BME280;62290;59.420;17.842;2023-01-10T08:22:20;100083.91;;;24.75;24.68
14293;BME280;62290;59.420;17.842;2023-01-10T08:24:49;100082.91;;;24.76;24.49
14293;BME280;62290;59.420;17.842;2023-01-10T08:27:17;100090.31;;;24.74;24.58
14293;BME280;62290;59.420;17.842;2023-01-10T08:29:45;100090.31;;;24.74;24.85
14293;BME280;62290;59.420;17.842;2023-01-10T08:32:13;100091.00;;;24.76;24.48
14293;BME280;62290;59.420;17.842;2023-01-10T08:34:41;100095.53;;;24.75;24.49
14293;BME280;62290;59.420;17.842;2023-01-10T08:37:11;100094.09;;;24.81;24.56
14293;BME280;62290;59.420;17.842;2023-01-10T08:39:39;100098.88;;;24.87;24.24
14293;BME280;62290;59.420;17.842;2023-01-10T08:42:09;100102.63;;;24.94;24.31
14293;BME280;62290;59.420;17.842;2023-01-10T08:44:37;100102.00;;;25.00;24.25
14293;BME280;62290;59.420;17.842;2023-01-10T08:47:05;100103.53;;;25.02;24.18
14293;BME280;62290;59.420;17.842;2023-01-10T08:49:33;100107.06;;;25.03;24.58
14293;BME280;62290;59.420;17.842;2023-01-10T08:52:01;100121.38;;;25.03;24.12
14293;BME280;62290;59.420;17.842;2023-01-10T08:54:29;100122.94;;;25.06;24.40
14293;BME280;62290;59.420;17.842;2023-01-10T08:56:58;100135.25;;;25.08;24.19
14293;BME280;62290;59.420;17.842;2023-01-10T08:59:28;100112.63;;;25.01;24.14
14293;BME280;62290;59.420;17.842;2023-01-10T09:01:56;100132.91;;;25.13;nan
14293;BME280;62290;59.420;17.842;2023-01-10T09:04:26;100136.16;;;25.17;24.02
14293;BME280;62290;59.420;17.842;2023-01-10T09:06:58;100142.22;;;25.19;24.02
14293;BME280;62290;59.420;17.842;2023-01-10T09:09:26;100141.25;;;25.20;23.78
14293;BME280;62290;59.420;17.842;2023-01-10T09:11:54;100141.06;;;25.22;23.94
14293;BME280;62290;59.420;17.842;2023-01-10T09:14:23;100145.31;;;25.24;24.04
14293;BME280;62290;59.420;17.842;2023-01-10T09:16:52;100151.22;;;25.28;23.79
14293;BME280;62290;59.420;17.842;2023-01-10T09:19:20;100162.03;;;25.28;23.67
14293;BME280;62290;59.420;17.842;2023-01-10T09:21:48;100159.00;;;25.31;23.72
14293;BME280;62290;59.420;17.842;2023-01-10T09:24:16;100161.22;;;25.35;24.07
14293;BME280;62290;59.420;17.842;2023-01-10T09:26:45;100162.94;;;25.36;24.03
14293;BME280;62290;59.420;17.842;2023-01-10T09:29:13;100160.75;;;25.40;23.64
14293;BME280;62290;59.420;17.842;2023-01-10T09:31:41;100158.69;;;25.34;23.67
14293;BME280;62290;59.420;17.842;2023-01-10T09:34:11;100178.03;;;25.47;24.00
14293;BME280;62290;59.420;17.842;2023-01-10T09:36:39;100188.50;;;25.50;23.87
14293;BME280;62290;59.420;17.842;2023-01-10T09:39:07;100178.91;;;25.55;23.45
14293;BME280;62290;59.420;17.842;2023-01-10T09:44:49;100183.00;;;25.59;24.05
14293;BME280;62290;59.420;17.842;2023-01-10T09:47:26;100177.75;;;25.58;23.91
14293;BME280;62290;59.420;17.842;2023-01-10T09:50:09;100174.75;;;25.61;23.80
14293;BME280;62290;59.420;17.842;2023-01-10T09:52:43;100190.94;;;25.61;23.80
14293;BME280;62290;59.420;17.842;2023-01-10T09:55:20;100185.38;;;25.62;23.96
14293;BME280;62290;59.420;17.842;2023-01-10T09:57:51;100198.03;;;25.62;23.88
14293;BME280;62290;59.420;17.842;2023-01-10T10:00:25;100193.63;;;25.61;23.93
14293;BME280;62290;59.420;17.842;2023-01-10T10:02:56;100200.72;;;25.62;23.53
14293;BME280;62290;59.420;17.842;2023-01-10T10:05:26;100206.81;;;25.64;23.48
14293;BME280;62290;59.420;17.842;2023-01-10T10:07:56;100202.09;;;25.66;23.69
14293;BME280;62290;59.420;17.842;2023-01-10T10:10:27;100214.91;;;25.64;23.51
14293;BME280;62290;59.420;17.842;2023-01-10T10:13:12;100223.00;;;25.64;23.75
14293;BME280;62290;59.420;17.842;2023-01-10T10:15:58;100234.97;;;25.61;23.40
14293;BME280;62290;59.420;17.842;2023-01-10T10:18:37;100236.50;;;25.64;23.73
14293;BME280;62290;59.420;17.842;2023-01-10T10:21:18;100239.19;;;25.64;23.41
14293;BME280;62290;59.420;17.842;2023-01-10T10:23:59;100235.63;;;25.63;23.17
14293;BME280;62290;59.420;17.842;2023-01-10T10:26:32;100237.66;;;25.61;23.55
14293;BME280;62290;59.420;17.842;2023-01-10T10:29:26;100240.34;;;25.61;23.10
14293;BME280;62290;59.420;17.842;2023-01-10T10:34:51;100246.59;;;25.62;23.93
14293;BME280;62290;59.420;17.842;2023-01-10T10:37:26;100248.28;;;25.63;23.33
14293;BME280;62290;59.420;17.842;2023-01-10T10:40:00;100251.84;;;25.63;23.98
14293;BME280;62290;59.420;17.842;2023-01-10T10:42:32;100245.28;;;25.66;24.42
14293;BME280;62290;59.420;17.842;2023-01-10T10:45:04;100255.75;;;25.69;25.93
14293;BME280;62290;59.420;17.842;2023-01-10T10:47:35;100249.66;;;25.67;27.08
14293;BME280;62290;59.420;17.842;2023-01-10T10:50:14;100253.59;;;25.72;28.32
14293;BME280;62290;59.420;17.842;2023-01-10T10:52:46;100253.13;;;25.77;30.14
14293;BME280;62290;59.420;17.842;2023-01-10T10:55:15;100261.75;;;25.81;31.62
14293;BME280;62290;59.420;17.842;2023-01-10T10:57:45;100261.81;;;25.89;33.07
14293;BME280;62290;59.420;17.842;2023-01-10T11:00:26;100259.47;;;25.94;32.33
14293;BME280;62290;59.420;17.842;2023-01-10T11:02:59;100254.25;;;26.00;32.35
14293;BME280;62290;59.420;17.842;2023-01-10T11:05:33;100258.34;;;26.04;32.56
14293;BME280;62290;59.420;17.842;2023-01-10T11:08:07;100262.72;;;26.05;32.78
14293;BME280;62290;59.420;17.842;2023-01-10T11:10:37;100259.53;;;26.02;32.70
14293;BME280;62290;59.420;17.842;2023-01-10T11:13:24;100259.03;;;26.06;32.11
14293;BME280;62290;59.420;17.842;2023-01-10T11:15:54;100251.59;;;26.08;31.18
14293;BME280;62290;59.420;17.842;2023-01-10T11:18:24;100248.59;;;26.11;29.98
14293;BME280;62290;59.420;17.842;2023-01-10T11:20:54;100250.59;;;26.09;29.52
14293;BME280;62290;59.420;17.842;2023-01-10T11:23:33;100255.84;;;26.11;28.86
14293;BME280;62290;59.420;17.842;2023-01-10T11:26:06;100262.81;;;26.13;28.82
14293;BME280;62290;59.420;17.842;2023-01-10T11:28:35;100252.28;;;26.10;28.12
14293;BME280;62290;59.420;17.842;2023-01-10T11:31:04;100257.84;;;26.09;27.65
14293;BME280;62290;59.420;17.842;2023-01-10T11:33:34;100267.63;;;26.10;27.85
14293;BME280;62290;59.420;17.842;2023-01-10T11:36:04;100268.47;;;26.10;27.49
14293;BME280;62290;59.420;17.842;2023-01-10T11:38:34;100269.91;;;26.14;26.94
14293;BME280;62290;59.420;17.842;2023-01-10T11:41:05;100265.72;;;26.20;26.77
14293;BME280;62290;59.420;17.842;2023-01-10T11:43:34;100265.88;;;26.18;26.75
14293;BME280;62290;59.420;17.842;2023-01-10T11:46:05;100269.50;;;26.09;26.76
14293;BME280;62290;59.420;17.842;2023-01-10T11:48:44;100262.34;;;26.00;26.66
14293;BME280;62290;59.420;17.842;2023-01-10T11:51:35;100258.25;;;25.88;26.48
14293;BME280;62290;59.420;17.842;2023-01-10T11:54:07;100255.19;;;25.83;26.34
14293;BME280;62290;59.420;17.842;2023-01-10T11:56:38;100267.28;;;25.79;26.37
14293;BME280;62290;59.420;17.842;2023-01-10T11:59:10;100262.38;;;25.74;26.80
14293;BME280;62290;59.420;17.842;2023-01-10T12:01:41;100279.72;;;25.72;26.43
14293;BME280;62290;59.420;17.842;2023-01-10T12:04:13;100274.34;;;25.72;26.59
14293;BME280;62290;59.420;17.842;2023-01-10T12:06:43;100274.50;;;25.70;26.10
14293;BME280;62290;59.420;17.842;2023-01-10T12:09:34;100275.50;;;25.69;26.29
14293;BME280;62290;59.420;17.842;2023-01-10T12:12:04;100275.66;;;25.68;26.18
14293;BME280;62290;59.420;17.842;2023-01-10T12:14:32;100277.19;;;25.70;26.02
14293;BME280;62290;59.420;17.842;2023-01-10T12:17:02;100274.34;;;25.72;26.30
14293;BME280;62290;59.420;17.842;2023-01-10T12:19:30;100275.50;;;25.69;26.28
14293;BME280;62290;59.420;17.842;2023-01-10T12:22:02;100275.50;;;25.69;25.92
14293;BME280;62290;59.420;17.842;2023-01-10T12:24:35;100283.59;;;25.69;26.31
14293;BME280;62290;59.420;17.842;2023-01-10T12:27:10;100279.06;;;25.70;25.97
14293;BME280;62290;59.420;17.842;2023-01-10T12:29:42;100288.69;;;25.72;25.82
14293;BME280;62290;59.420;17.842;2023-01-10T12:32:16;100287.50;;;25.75;26.00
14293;BME280;62290;59.420;17.842;2023-01-10T12:34:51;100277.88;;;25.72;26.04
14293;BME280;62290;59.420;17.842;2023-01-10T12:37:29;100272.13;;;25.67;26.31
14293;BME280;62290;59.420;17.842;2023-01-10T12:40:08;100288.81;;;25.71;26.36
14293;BME280;62290;59.420;17.842;2023-01-10T12:42:46;100288.13;;;25.69;25.94
14293;BME280;62290;59.420;17.842;2023-01-10T12:45:37;100302.47;;;25.69;25.99
14293;BME280;62290;59.420;17.842;2023-01-10T12:48:13;100298.78;;;25.70;26.13
14293;BME280;62290;59.420;17.842;2023-01-10T12:50:45;100301.50;;;25.70;26.15
14293;BME280;62290;59.420;17.842;2023-01-10T12:53:24;100277.59;;;25.58;25.84
14293;BME280;62290;59.420;17.842;2023-01-10T12:55:59;100300.47;;;25.71;25.70
14293;BME280;62290;59.420;17.842;2023-01-10T12:58:35;100308.75;;;25.70;25.70
14293;BME280;62290;59.420;17.842;2023-01-10T13:01:05;100320.69;;;25.67;25.82
14293;BME280;62290;59.420;17.842;2023-01-10T13:03:34;100324.38;;;25.66;25.59
14293;BME280;62290;59.420;17.842;2023-01-10T13:06:03;100327.25;;;25.65;25.91
14293;BME280;62290;59.420;17.842;2023-01-10T13:08:33;100334.63;;;25.63;25.80
14293;BME280;62290;59.420;17.842;2023-01-10T13:11:08;100333.47;;;25.65;25.95
14293;BME280;62290;59.420;17.842;2023-01-10T13:13:42;100348.53;;;25.68;25.95
14293;BME280;62290;59.420;17.842;2023-01-10T13:16:31;100333.47;;;25.65;25.55